Indian Land, South Carolina
Current Conditions -  °F | °C
As of 4:54 PM on Friday 31 Oct 2014 (Local Time) from KUZA Reporting Station
Few Clouds Few Clouds  
Wind Chill: 61°   Ceiling: Unl
Heat Index: 61°   Visibility: 10mi
Dew Point: 46°   Wind: 3mph
Humidity: 58%   Direction: NA
Pressure: 29.8"   Gusts: NA
Location:  34.9987°N, 80.9032°W
Report Text: KUZA 312054Z AUTO VRB03KT 10SM FEW041 16/08 A2980 RMK AO2 SLP091 T01610078 56019
Loading
Personal Weather Stations






























Interactive Weather Map
Tropical Storm Tracking
New forecast layout! Learn more

10-Day Weather Forecast

Advertisements
Track Severe Weather on mobile